Roscoe, Texas
Current Conditions -  °F | °C
As of 4:55 PM on Saturday 20 Dec 2014 (Local Time) from KSWW Reporting Station
Overcast Overcast  
Wind Chill: 53°   Ceiling: 2900
Heat Index: 53°   Visibility: 10mi
Dew Point: 42°   Wind: 10mph
Humidity: 66%   Direction: 140°SE
Pressure: 30.1"   Gusts: NA
Location:  32.45°N, 100.54°W
Report Text: KSWW 202255Z AUTO 14009KT 10SM OVC029 12/05 A3010 RMK AO2 T01150054
Loading
Personal Weather Stations






























Interactive Weather Map New forecast layout! Learn more

10-Day Weather Forecast

Advertisements
Track Severe Weather on mobile